sensor_id;sensor_type;location;lat;lon;timestamp;pressure;altitude;pressure_sealevel;temperature;humidity
34925;BME280;21130;51.728;8.748;2023-05-01T00:01:28;100671.53;;;5.04;100.00
34925;BME280;21130;51.728;8.748;2023-05-01T00:03:56;100665.63;;;5.00;100.00
34925;BME280;21130;51.728;8.748;2023-05-01T00:06:23;100671.31;;;4.98;100.00
34925;BME280;21130;51.728;8.748;2023-05-01T00:08:50;100661.38;;;4.97;100.00
34925;BME280;21130;51.728;8.748;2023-05-01T00:11:16;100662.16;;;4.91;100.00
34925;BME280;21130;51.728;8.748;2023-05-01T00:13:43;100657.94;;;4.89;100.00
34925;BME280;21130;51.728;8.748;2023-05-01T00:16:09;100649.91;;;4.87;100.00
34925;BME280;21130;51.728;8.748;2023-05-01T00:18:36;100652.66;;;4.87;100.00
34925;BME280;21130;51.728;8.748;2023-05-01T00:21:04;100645.84;;;4.83;100.00
34925;BME280;21130;51.728;8.748;2023-05-01T00:23:31;100646.91;;;4.82;100.00
34925;BME280;21130;51.728;8.748;2023-05-01T00:25:57;100641.41;;;4.82;100.00
34925;BME280;21130;51.728;8.748;2023-05-01T00:28:24;100631.25;;;4.83;100.00
34925;BME280;21130;51.728;8.748;2023-05-01T00:30:50;100637.19;;;4.80;100.00
34925;BME280;21130;51.728;8.748;2023-05-01T00:33:17;100640.16;;;4.85;100.00
34925;BME280;21130;51.728;8.748;2023-05-01T00:35:44;100633.00;;;4.90;100.00
34925;BME280;21130;51.728;8.748;2023-05-01T00:38:11;100622.81;;;4.91;100.00
34925;BME280;21130;51.728;8.748;2023-05-01T00:40:41;100630.44;;;4.89;100.00
34925;BME280;21130;51.728;8.748;2023-05-01T00:43:08;100625.38;;;4.92;100.00
34925;BME280;21130;51.728;8.748;2023-05-01T00:45:35;100620.53;;;4.94;100.00
34925;BME280;21130;51.728;8.748;2023-05-01T00:48:01;100619.06;;;4.98;100.00
34925;BME280;21130;51.728;8.748;2023-05-01T00:50:28;100614.38;;;4.99;100.00
34925;BME280;21130;51.728;8.748;2023-05-01T00:52:55;100612.94;;;5.03;100.00
34925;BME280;21130;51.728;8.748;2023-05-01T00:55:23;100608.69;;;5.01;100.00
34925;BME280;21130;51.728;8.748;2023-05-01T00:57:49;100610.59;;;5.00;100.00
34925;BME280;21130;51.728;8.748;2023-05-01T01:00:16;100606.78;;;4.94;100.00
34925;BME280;21130;51.728;8.748;2023-05-01T01:02:43;100598.53;;;4.94;100.00
34925;BME280;21130;51.728;8.748;2023-05-01T01:05:11;100592.63;;;4.97;100.00
34925;BME280;21130;51.728;8.748;2023-05-01T01:07:40;100590.28;;;5.01;100.00
34925;BME280;21130;51.728;8.748;2023-05-01T01:10:15;100593.44;;;4.98;100.00
34925;BME280;21130;51.728;8.748;2023-05-01T01:12:51;100593.66;;;4.96;100.00
34925;BME280;21130;51.728;8.748;2023-05-01T01:15:27;100590.75;;;5.11;100.00
34925;BME280;21130;51.728;8.748;2023-05-01T01:17:58;100590.09;;;5.03;100.00
34925;BME280;21130;51.728;8.748;2023-05-01T01:20:30;100580.78;;;4.97;100.00
34925;BME280;21130;51.728;8.748;2023-05-01T01:23:23;100579.28;;;4.94;100.00
34925;BME280;21130;51.728;8.748;2023-05-01T01:26:12;100576.53;;;4.94;100.00
34925;BME280;21130;51.728;8.748;2023-05-01T01:28:59;100580.97;;;4.95;100.00
34925;BME280;21130;51.728;8.748;2023-05-01T01:31:31;100573.78;;;4.94;100.00
34925;BME280;21130;51.728;8.748;2023-05-01T01:34:07;100564.03;;;4.98;100.00
34925;BME280;21130;51.728;8.748;2023-05-01T01:36:42;100568.09;;;5.03;100.00
34925;BME280;21130;51.728;8.748;2023-05-01T01:39:20;100558.16;;;5.02;100.00
34925;BME280;21130;51.728;8.748;2023-05-01T01:41:50;100559.38;;;4.99;100.00
34925;BME280;21130;51.728;8.748;2023-05-01T01:44:22;100559.59;;;4.97;100.00
34925;BME280;21130;51.728;8.748;2023-05-01T01:46:51;100556.25;;;5.02;100.00
34925;BME280;21130;51.728;8.748;2023-05-01T01:49:24;100556.69;;;5.12;100.00
34925;BME280;21130;51.728;8.748;2023-05-01T01:51:52;100547.38;;;5.20;100.00
34925;BME280;21130;51.728;8.748;2023-05-01T01:54:23;100544.22;;;5.23;100.00
34925;BME280;21130;51.728;8.748;2023-05-01T01:56:52;100539.13;;;5.20;100.00
34925;BME280;21130;51.728;8.748;2023-05-01T01:59:21;100539.13;;;5.20;100.00
34925;BME280;21130;51.728;8.748;2023-05-01T02:01:50;100539.97;;;5.20;100.00
34925;BME280;21130;51.728;8.748;2023-05-01T02:04:19;100532.38;;;5.23;100.00
34925;BME280;21130;51.728;8.748;2023-05-01T02:06:48;100526.03;;;5.22;100.00
34925;BME280;21130;51.728;8.748;2023-05-01T02:09:16;100529.81;;;5.14;100.00
34925;BME280;21130;51.728;8.748;2023-05-01T02:11:45;100517.75;;;5.15;100.00
34925;BME280;21130;51.728;8.748;2023-05-01T02:14:12;100521.38;;;5.23;100.00
34925;BME280;21130;51.728;8.748;2023-05-01T02:16:40;100515.84;;;5.16;100.00
34925;BME280;21130;51.728;8.748;2023-05-01T02:19:07;100517.78;;;5.22;100.00
34925;BME280;21130;51.728;8.748;2023-05-01T02:21:35;100515.00;;;5.15;100.00
34925;BME280;21130;51.728;8.748;2023-05-01T02:24:04;100511.59;;;5.13;100.00
34925;BME280;21130;51.728;8.748;2023-05-01T02:26:36;100518.78;;;5.08;100.00
34925;BME280;21130;51.728;8.748;2023-05-01T02:29:04;100514.34;;;5.07;100.00
34925;BME280;21130;51.728;8.748;2023-05-01T02:31:31;100500.41;;;5.15;100.00
34925;BME280;21130;51.728;8.748;2023-05-01T02:33:58;100502.91;;;5.16;100.00
34925;BME280;21130;51.728;8.748;2023-05-01T02:36:25;100499.75;;;5.13;100.00
34925;BME280;21130;51.728;8.748;2023-05-01T02:38:52;100501.22;;;5.09;100.00
34925;BME280;21130;51.728;8.748;2023-05-01T02:41:21;100503.13;;;5.02;100.00
34925;BME280;21130;51.728;8.748;2023-05-01T02:43:50;100494.22;;;4.93;100.00
34925;BME280;21130;51.728;8.748;2023-05-01T02:46:19;100494.84;;;4.88;100.00
34925;BME280;21130;51.728;8.748;2023-05-01T02:48:47;100494.84;;;4.88;100.00
34925;BME280;21130;51.728;8.748;2023-05-01T02:51:14;100479.81;;;4.84;100.00
34925;BME280;21130;51.728;8.748;2023-05-01T02:53:41;100487.22;;;4.90;100.00
34925;BME280;21130;51.728;8.748;2023-05-01T02:56:07;100467.56;;;4.93;100.00
34925;BME280;21130;51.728;8.748;2023-05-01T02:58:35;100465.88;;;4.92;100.00
34925;BME280;21130;51.728;8.748;2023-05-01T03:01:01;100463.75;;;5.01;100.00
34925;BME280;21130;51.728;8.748;2023-05-01T03:03:28;100469.50;;;5.13;100.00
34925;BME280;21130;51.728;8.748;2023-05-01T03:05:55;100472.88;;;5.02;100.00
34925;BME280;21130;51.728;8.748;2023-05-01T03:08:21;100465.47;;;5.09;100.00
34925;BME280;21130;51.728;8.748;2023-05-01T03:10:48;100464.00;;;5.19;100.00
34925;BME280;21130;51.728;8.748;2023-05-01T03:13:14;100456.38;;;5.22;100.00
34925;BME280;21130;51.728;8.748;2023-05-01T03:15:43;100460.41;;;5.26;100.00
34925;BME280;21130;51.728;8.748;2023-05-01T03:18:28;100456.16;;;5.23;100.00
34925;BME280;21130;51.728;8.748;2023-05-01T03:20:57;100451.28;;;5.18;100.00
34925;BME280;21130;51.728;8.748;2023-05-01T03:23:24;100445.59;;;5.27;100.00
34925;BME280;21130;51.728;8.748;2023-05-01T03:25:52;100443.25;;;5.24;100.00
34925;BME280;21130;51.728;8.748;2023-05-01T03:28:18;100439.44;;;5.31;100.00
34925;BME280;21130;51.728;8.748;2023-05-01T03:30:50;100436.50;;;5.39;100.00
34925;BME280;21130;51.728;8.748;2023-05-01T03:33:16;100438.38;;;5.46;100.00
34925;BME280;21130;51.728;8.748;2023-05-01T03:35:43;100433.72;;;5.46;100.00
34925;BME280;21130;51.728;8.748;2023-05-01T03:38:11;100437.09;;;5.48;100.00
34925;BME280;21130;51.728;8.748;2023-05-01T03:40:38;100430.75;;;5.54;100.00
34925;BME280;21130;51.728;8.748;2023-05-01T03:43:04;100430.31;;;5.51;100.00
34925;BME280;21130;51.728;8.748;2023-05-01T03:45:30;100422.91;;;5.51;100.00
34925;BME280;21130;51.728;8.748;2023-05-01T03:47:58;100421.22;;;5.57;100.00
34925;BME280;21130;51.728;8.748;2023-05-01T03:50:24;100427.34;;;5.59;100.00
34925;BME280;21130;51.728;8.748;2023-05-01T03:52:51;100420.59;;;5.55;100.00
34925;BME280;21130;51.728;8.748;2023-05-01T03:55:17;100416.56;;;5.57;100.00
34925;BME280;21130;51.728;8.748;2023-05-01T03:57:44;100416.53;;;5.71;100.00
34925;BME280;21130;51.728;8.748;2023-05-01T04:00:12;100407.81;;;5.80;100.00
34925;BME280;21130;51.728;8.748;2023-05-01T04:02:39;100405.72;;;5.82;100.00
34925;BME280;21130;51.728;8.748;2023-05-01T04:05:08;100401.91;;;5.70;100.00
34925;BME280;21130;51.728;8.748;2023-05-01T04:07:34;100408.28;;;5.71;100.00
34925;BME280;21130;51.728;8.748;2023-05-01T04:10:06;100412.09;;;5.70;100.00
34925;BME280;21130;51.728;8.748;2023-05-01T04:12:34;100403.41;;;5.73;100.00
34925;BME280;21130;51.728;8.748;2023-05-01T04:15:00;100411.66;;;5.73;100.00
34925;BME280;21130;51.728;8.748;2023-05-01T04:17:27;100410.56;;;5.80;100.00
34925;BME280;21130;51.728;8.748;2023-05-01T04:19:54;100412.91;;;5.83;100.00
34925;BME280;21130;51.728;8.748;2023-05-01T04:22:22;100410.56;;;5.94;100.00
34925;BME280;21130;51.728;8.748;2023-05-01T04:24:48;100404.00;;;5.88;100.00
34925;BME280;21130;51.728;8.748;2023-05-01T04:27:15;100399.13;;;5.90;100.00
34925;BME280;21130;51.728;8.748;2023-05-01T04:29:42;100405.88;;;6.01;100.00
34925;BME280;21130;51.728;8.748;2023-05-01T04:32:08;100406.50;;;6.03;100.00
34925;BME280;21130;51.728;8.748;2023-05-01T04:34:35;100404.84;;;6.02;100.00
34925;BME280;21130;51.728;8.748;2023-05-01T04:37:01;100404.84;;;6.02;100.00
34925;BME280;21130;51.728;8.748;2023-05-01T04:39:29;100406.06;;;6.06;100.00
34925;BME280;21130;51.728;8.748;2023-05-01T04:41:56;100394.00;;;6.07;100.00
34925;BME280;21130;51.728;8.748;2023-05-01T04:44:22;100397.38;;;6.09;100.00
34925;BME280;21130;51.728;8.748;2023-05-01T04:46:48;100394.38;;;6.17;100.00
34925;BME280;21130;51.728;8.748;2023-05-01T04:49:15;100396.25;;;6.23;100.00
34925;BME280;21130;51.728;8.748;2023-05-01T04:51:41;100397.69;;;6.33;100.00
34925;BME280;21130;51.728;8.748;2023-05-01T04:54:08;100396.22;;;6.30;100.00
34925;BME280;21130;51.728;8.748;2023-05-01T04:56:35;100392.38;;;6.38;100.00
34925;BME280;21130;51.728;8.748;2023-05-01T04:59:02;100398.88;;;6.50;100.00
34925;BME280;21130;51.728;8.748;2023-05-01T05:01:28;100392.03;;;6.59;100.00
34925;BME280;21130;51.728;8.748;2023-05-01T05:03:55;100391.34;;;6.64;100.00
34925;BME280;21130;51.728;8.748;2023-05-01T05:06:21;100389.63;;;6.69;100.00
34925;BME280;21130;51.728;8.748;2023-05-01T05:08:48;100386.16;;;6.81;100.00
34925;BME280;21130;51.728;8.748;2023-05-01T05:11:16;100387.69;;;7.02;100.00
34925;BME280;21130;51.728;8.748;2023-05-01T05:13:44;100389.78;;;7.06;100.00
34925;BME280;21130;51.728;8.748;2023-05-01T05:16:10;100387.78;;;7.20;100.00
34925;BME280;21130;51.728;8.748;2023-05-01T05:18:37;100391.88;;;7.36;100.00
34925;BME280;21130;51.728;8.748;2023-05-01T05:21:03;100381.09;;;7.53;100.00
34925;BME280;21130;51.728;8.748;2023-05-01T05:23:30;100385.63;;;7.66;100.00
34925;BME280;21130;51.728;8.748;2023-05-01T05:25:56;100381.72;;;7.92;100.00
34925;BME280;21130;51.728;8.748;2023-05-01T05:28:25;100381.31;;;8.07;100.00
34925;BME280;21130;51.728;8.748;2023-05-01T05:30:53;100373.94;;;8.19;100.00
34925;BME280;21130;51.728;8.748;2023-05-01T05:33:20;100379.06;;;8.34;100.00
34925;BME280;21130;51.728;8.748;2023-05-01T05:35:49;100378.81;;;8.54;100.00
34925;BME280;21130;51.728;8.748;2023-05-01T05:38:15;100375.50;;;8.63;100.00
34925;BME280;21130;51.728;8.748;2023-05-01T05:40:42;100369.75;;;8.77;100.00
34925;BME280;21130;51.728;8.748;2023-05-01T05:43:08;100368.56;;;8.84;100.00
34925;BME280;21130;51.728;8.748;2023-05-01T05:45:35;100374.03;;;9.03;100.00
34925;BME280;21130;51.728;8.748;2023-05-01T05:48:03;100364.75;;;9.09;100.00
34925;BME280;21130;51.728;8.748;2023-05-01T05:50:30;100365.00;;;9.19;100.00
34925;BME280;21130;51.728;8.748;2023-05-01T05:52:56;100364.66;;;9.27;100.00
34925;BME280;21130;51.728;8.748;2023-05-01T05:55:22;100360.34;;;9.43;100.00
34925;BME280;21130;51.728;8.748;2023-05-01T05:57:49;100363.59;;;9.52;100.00
34925;BME280;21130;51.728;8.748;2023-05-01T06:00:16;100363.69;;;9.57;100.00
34925;BME280;21130;51.728;8.748;2023-05-01T06:02:43;100363.31;;;9.65;100.00
34925;BME280;21130;51.728;8.748;2023-05-01T06:05:11;100354.16;;;9.77;100.00
34925;BME280;21130;51.728;8.748;2023-05-01T06:07:37;100349.69;;;9.87;100.00
34925;BME280;21130;51.728;8.748;2023-05-01T06:10:04;100349.78;;;10.04;100.00
34925;BME280;21130;51.728;8.748;2023-05-01T06:12:31;100345.75;;;10.12;100.00
34925;BME280;21130;51.728;8.748;2023-05-01T06:14:58;100348.97;;;10.32;97.86
34925;BME280;21130;51.728;8.748;2023-05-01T06:17:25;100346.50;;;10.48;100.00
34925;BME280;21130;51.728;8.748;2023-05-01T06:19:51;100352.00;;;10.59;100.00
34925;BME280;21130;51.728;8.748;2023-05-01T06:22:19;100356.56;;;10.82;100.00
34925;BME280;21130;51.728;8.748;2023-05-01T06:24:46;100346.41;;;10.71;96.19
34925;BME280;21130;51.728;8.748;2023-05-01T06:27:12;100342.47;;;10.84;84.17
34925;BME280;21130;51.728;8.748;2023-05-01T06:29:39;100345.66;;;10.93;85.35
34925;BME280;21130;51.728;8.748;2023-05-01T06:32:06;100342.97;;;10.98;84.44
34925;BME280;21130;51.728;8.748;2023-05-01T06:34:32;100344.31;;;10.95;82.18
34925;BME280;21130;51.728;8.748;2023-05-01T06:36:58;100347.34;;;11.11;82.87
34925;BME280;21130;51.728;8.748;2023-05-01T06:39:27;100335.31;;;11.22;82.21
34925;BME280;21130;51.728;8.748;2023-05-01T06:41:53;100350.88;;;11.23;83.38
34925;BME280;21130;51.728;8.748;2023-05-01T06:44:19;100340.59;;;11.40;79.67
34925;BME280;21130;51.728;8.748;2023-05-01T06:46:46;100344.41;;;11.34;80.54
34925;BME280;21130;51.728;8.748;2023-05-01T06:49:12;100351.19;;;11.43;89.63
34925;BME280;21130;51.728;8.748;2023-05-01T06:51:39;100351.38;;;11.54;79.13
34925;BME280;21130;51.728;8.748;2023-05-01T06:54:05;100344.13;;;11.53;79.77
34925;BME280;21130;51.728;8.748;2023-05-01T06:56:33;100340.47;;;11.69;82.20
34925;BME280;21130;51.728;8.748;2023-05-01T06:58:59;100338.19;;;11.66;84.39
34925;BME280;21130;51.728;8.748;2023-05-01T07:01:25;100337.41;;;11.87;79.97
34925;BME280;21130;51.728;8.748;2023-05-01T07:03:52;100339.16;;;12.16;78.37
34925;BME280;21130;51.728;8.748;2023-05-01T07:06:18;100342.50;;;12.40;78.27
34925;BME280;21130;51.728;8.748;2023-05-01T07:08:45;100334.41;;;12.38;74.64
34925;BME280;21130;51.728;8.748;2023-05-01T07:11:11;100334.25;;;12.50;73.03
34925;BME280;21130;51.728;8.748;2023-05-01T07:13:39;100333.88;;;12.68;70.91
34925;BME280;21130;51.728;8.748;2023-05-01T07:16:06;100329.09;;;12.91;71.88
34925;BME280;21130;51.728;8.748;2023-05-01T07:18:32;100330.09;;;13.07;68.20
34925;BME280;21130;51.728;8.748;2023-05-01T07:20:59;100330.41;;;13.15;73.39
34925;BME280;21130;51.728;8.748;2023-05-01T07:23:26;100329.47;;;13.32;71.00
34925;BME280;21130;51.728;8.748;2023-05-01T07:25:53;100325.19;;;13.24;70.60
34925;BME280;21130;51.728;8.748;2023-05-01T07:28:19;100319.97;;;13.28;68.39
34925;BME280;21130;51.728;8.748;2023-05-01T07:30:48;100325.81;;;13.31;68.63
34925;BME280;21130;51.728;8.748;2023-05-01T07:33:15;100321.47;;;13.46;68.21
34925;BME280;21130;51.728;8.748;2023-05-01T07:35:41;100316.56;;;13.26;66.25
34925;BME280;21130;51.728;8.748;2023-05-01T07:38:08;100318.94;;;13.44;66.79
34925;BME280;21130;51.728;8.748;2023-05-01T07:40:34;100317.31;;;13.48;68.27
34925;BME280;21130;51.728;8.748;2023-05-01T07:43:01;100313.88;;;13.83;67.16
34925;BME280;21130;51.728;8.748;2023-05-01T07:45:27;100317.31;;;14.06;71.06
34925;BME280;21130;51.728;8.748;2023-05-01T07:47:55;100304.22;;;14.12;65.07
34925;BME280;21130;51.728;8.748;2023-05-01T07:50:22;100309.00;;;14.16;64.32
34925;BME280;21130;51.728;8.748;2023-05-01T07:52:49;100305.22;;;14.53;66.09
34925;BME280;21130;51.728;8.748;2023-05-01T07:55:17;100301.06;;;14.76;62.95
34925;BME280;21130;51.728;8.748;2023-05-01T07:57:43;100305.00;;;14.96;62.49
34925;BME280;21130;51.728;8.748;2023-05-01T08:00:10;100305.00;;;15.01;63.31
34925;BME280;21130;51.728;8.748;2023-05-01T08:02:37;100303.03;;;15.11;60.59
34925;BME280;21130;51.728;8.748;2023-05-01T08:05:07;100304.41;;;15.50;62.72
34925;BME280;21130;51.728;8.748;2023-05-01T08:07:33;100308.06;;;15.40;59.13
34925;BME280;21130;51.728;8.748;2023-05-01T08:09:59;100305.78;;;15.73;58.80
34925;BME280;21130;51.728;8.748;2023-05-01T08:12:27;100297.06;;;15.64;58.66
34925;BME280;21130;51.728;8.748;2023-05-01T08:14:53;100302.41;;;15.76;64.46
34925;BME280;21130;51.728;8.748;2023-05-01T08:17:20;100298.47;;;16.42;57.87
34925;BME280;21130;51.728;8.748;2023-05-01T08:19:48;100303.16;;;16.52;57.96
34925;BME280;21130;51.728;8.748;2023-05-01T08:22:16;100303.69;;;16.59;55.50
34925;BME280;21130;51.728;8.748;2023-05-01T08:24:42;100303.47;;;16.50;57.96
34925;BME280;21130;51.728;8.748;2023-05-01T08:27:09;100292.56;;;16.93;57.26
34925;BME280;21130;51.728;8.748;2023-05-01T08:29:35;100296.19;;;16.94;55.20
34925;BME280;21130;51.728;8.748;2023-05-01T08:32:02;100296.66;;;17.06;55.33
34925;BME280;21130;51.728;8.748;2023-05-01T08:34:28;100285.47;;;17.30;52.89
34925;BME280;21130;51.728;8.748;2023-05-01T08:36:55;100278.44;;;17.03;52.74
34925;BME280;21130;51.728;8.748;2023-05-01T08:39:23;100284.31;;;17.36;55.48
34925;BME280;21130;51.728;8.748;2023-05-01T08:41:49;100279.53;;;17.37;54.28
34925;BME280;21130;51.728;8.748;2023-05-01T08:44:18;100285.41;;;17.94;55.96
34925;BME280;21130;51.728;8.748;2023-05-01T08:46:46;100280.00;;;18.21;54.02
34925;BME280;21130;51.728;8.748;2023-05-01T08:49:15;100282.25;;;18.38;53.16
34925;BME280;21130;51.728;8.748;2023-05-01T08:51:44;100279.19;;;18.77;52.44
34925;BME280;21130;51.728;8.748;2023-05-01T08:54:11;100279.69;;;18.61;51.68
34925;BME280;21130;51.728;8.748;2023-05-01T08:56:42;100282.59;;;18.37;51.68
34925;BME280;21130;51.728;8.748;2023-05-01T08:59:10;100274.69;;;18.39;51.39
34925;BME280;21130;51.728;8.748;2023-05-01T09:01:36;100275.34;;;18.30;51.23
34925;BME280;21130;51.728;8.748;2023-05-01T09:04:05;100267.66;;;18.17;52.40
34925;BME280;21130;51.728;8.748;2023-05-01T09:06:33;100272.69;;;18.58;51.84
34925;BME280;21130;51.728;8.748;2023-05-01T09:08:59;100269.00;;;19.14;50.22
34925;BME280;21130;51.728;8.748;2023-05-01T09:11:26;100264.41;;;19.65;47.80
34925;BME280;21130;51.728;8.748;2023-05-01T09:13:55;100267.19;;;20.62;47.67
34925;BME280;21130;51.728;8.748;2023-05-01T09:16:22;100252.03;;;20.44;47.29
34925;BME280;21130;51.728;8.748;2023-05-01T09:18:49;100263.91;;;20.18;44.27
34925;BME280;21130;51.728;8.748;2023-05-01T09:21:15;100259.66;;;20.43;48.01
34925;BME280;21130;51.728;8.748;2023-05-01T09:23:42;100251.63;;;21.09;45.06
34925;BME280;21130;51.728;8.748;2023-05-01T09:26:09;100247.94;;;21.09;42.65
34925;BME280;21130;51.728;8.748;2023-05-01T09:28:39;100255.25;;;21.32;43.29
34925;BME280;21130;51.728;8.748;2023-05-01T09:31:21;100251.16;;;21.70;42.59
34925;BME280;21130;51.728;8.748;2023-05-01T09:33:52;100249.22;;;21.96;42.11
34925;BME280;21130;51.728;8.748;2023-05-01T09:36:19;100248.53;;;22.48;41.68
34925;BME280;21130;51.728;8.748;2023-05-01T09:38:46;100242.72;;;22.71;39.43
34925;BME280;21130;51.728;8.748;2023-05-01T09:41:13;100244.84;;;22.21;39.40
34925;BME280;21130;51.728;8.748;2023-05-01T09:43:40;100239.75;;;22.50;41.25
34925;BME280;21130;51.728;8.748;2023-05-01T09:46:09;100240.91;;;23.01;38.80
34925;BME280;21130;51.728;8.748;2023-05-01T09:48:38;100236.88;;;23.66;39.42
34925;BME280;21130;51.728;8.748;2023-05-01T09:51:19;100247.34;;;23.27;39.39
34925;BME280;21130;51.728;8.748;2023-05-01T09:53:46;100243.31;;;23.37;37.23
34925;BME280;21130;51.728;8.748;2023-05-01T09:56:12;100247.03;;;22.77;37.83
34925;BME280;21130;51.728;8.748;2023-05-01T09:58:39;100235.41;;;22.43;36.89
34925;BME280;21130;51.728;8.748;2023-05-01T10:01:06;100233.13;;;22.06;39.23
34925;BME280;21130;51.728;8.748;2023-05-01T10:03:33;100238.13;;;22.00;40.24
34925;BME280;21130;51.728;8.748;2023-05-01T10:06:01;100229.69;;;22.17;39.46
34925;BME280;21130;51.728;8.748;2023-05-01T10:08:43;100232.25;;;21.88;40.49
34925;BME280;21130;51.728;8.748;2023-05-01T10:11:10;100226.97;;;21.24;37.84
34925;BME280;21130;51.728;8.748;2023-05-01T10:13:36;100226.94;;;20.92;39.54
34925;BME280;21130;51.728;8.748;2023-05-01T10:16:03;100223.88;;;21.65;39.89
34925;BME280;21130;51.728;8.748;2023-05-01T10:18:32;100230.47;;;22.00;38.29
34925;BME280;21130;51.728;8.748;2023-05-01T10:21:03;100216.28;;;22.40;37.11
34925;BME280;21130;51.728;8.748;2023-05-01T10:23:30;100225.75;;;22.36;38.13
34925;BME280;21130;51.728;8.748;2023-05-01T10:26:00;100224.59;;;22.63;37.40
34925;BME280;21130;51.728;8.748;2023-05-01T10:28:27;100227.75;;;22.61;36.90
34925;BME280;21130;51.728;8.748;2023-05-01T10:30:54;100227.38;;;22.37;37.43
34925;BME280;21130;51.728;8.748;2023-05-01T10:33:23;100230.75;;;23.00;36.63
34925;BME280;21130;51.728;8.748;2023-05-01T10:35:55;100229.44;;;22.62;37.27
34925;BME280;21130;51.728;8.748;2023-05-01T10:38:30;100230.00;;;21.58;35.97
34925;BME280;21130;51.728;8.748;2023-05-01T10:40:59;100224.47;;;21.53;37.37
34925;BME280;21130;51.728;8.748;2023-05-01T10:43:26;100212.84;;;22.04;38.67
34925;BME280;21130;51.728;8.748;2023-05-01T10:45:55;100219.66;;;21.54;36.11
34925;BME280;21130;51.728;8.748;2023-05-01T10:48:57;100211.47;;;21.12;36.83
34925;BME280;21130;51.728;8.748;2023-05-01T10:51:24;100209.81;;;20.30;40.88
34925;BME280;21130;51.728;8.748;2023-05-01T10:54:22;100201.03;;;20.68;39.58
34925;BME280;21130;51.728;8.748;2023-05-01T10:56:53;100198.91;;;20.96;38.35
34925;BME280;21130;51.728;8.748;2023-05-01T10:59:20;100187.00;;;21.70;36.27
34925;BME280;21130;51.728;8.748;2023-05-01T11:01:47;100189.25;;;22.08;35.47
34925;BME280;21130;51.728;8.748;2023-05-01T11:04:44;100190.97;;;22.79;33.80
34925;BME280;21130;51.728;8.748;2023-05-01T11:07:13;100185.19;;;23.78;33.32
34925;BME280;21130;51.728;8.748;2023-05-01T11:09:44;100182.69;;;24.27;34.02
34925;BME280;21130;51.728;8.748;2023-05-01T11:12:12;100180.09;;;25.43;32.83
34925;BME280;21130;51.728;8.748;2023-05-01T11:15:00;100175.50;;;25.63;32.47
34925;BME280;21130;51.728;8.748;2023-05-01T11:17:52;100178.47;;;25.54;33.04
34925;BME280;21130;51.728;8.748;2023-05-01T11:23:24;100178.72;;;23.78;33.48
34925;BME280;21130;51.728;8.748;2023-05-01T11:26:02;100176.53;;;23.36;33.62
34925;BME280;21130;51.728;8.748;2023-05-01T11:28:30;100163.34;;;23.79;34.80
34925;BME280;21130;51.728;8.748;2023-05-01T11:30:57;100173.13;;;22.87;33.62
34925;BME280;21130;51.728;8.748;2023-05-01T11:33:24;100180.16;;;21.23;36.99
34925;BME280;21130;51.728;8.748;2023-05-01T11:36:01;100170.13;;;22.14;37.12
34925;BME280;21130;51.728;8.748;2023-05-01T11:38:29;100172.63;;;21.98;34.83
34925;BME280;21130;51.728;8.748;2023-05-01T11:40:58;100166.69;;;22.43;35.30
34925;BME280;21130;51.728;8.748;2023-05-01T11:43:26;100165.25;;;23.19;33.75
34925;BME280;21130;51.728;8.748;2023-05-01T11:45:53;100152.22;;;23.74;32.06
34925;BME280;21130;51.728;8.748;2023-05-01T11:48:27;100154.28;;;24.57;31.90
34925;BME280;21130;51.728;8.748;2023-05-01T11:50:53;100153.53;;;23.67;31.74
34925;BME280;21130;51.728;8.748;2023-05-01T11:53:20;100144.94;;;24.35;33.47
34925;BME280;21130;51.728;8.748;2023-05-01T11:55:46;100148.38;;;24.20;31.88
34925;BME280;21130;51.728;8.748;2023-05-01T11:58:13;100146.53;;;24.03;30.96
34925;BME280;21130;51.728;8.748;2023-05-01T12:00:42;100144.75;;;23.22;31.98
34925;BME280;21130;51.728;8.748;2023-05-01T12:03:10;100151.47;;;23.08;31.09
34925;BME280;21130;51.728;8.748;2023-05-01T12:05:40;100148.19;;;22.98;31.23
34925;BME280;21130;51.728;8.748;2023-05-01T12:08:09;100148.34;;;22.84;32.02
34925;BME280;21130;51.728;8.748;2023-05-01T12:10:36;100145.66;;;21.83;32.68
34925;BME280;21130;51.728;8.748;2023-05-01T12:13:03;100150.78;;;20.92;34.53
34925;BME280;21130;51.728;8.748;2023-05-01T12:15:31;100147.97;;;21.32;34.36
34925;BME280;21130;51.728;8.748;2023-05-01T12:17:59;100143.47;;;21.31;34.92
34925;BME280;21130;51.728;8.748;2023-05-01T12:20:36;100140.66;;;21.31;34.43
34925;BME280;21130;51.728;8.748;2023-05-01T12:23:04;100143.63;;;21.66;34.76
34925;BME280;21130;51.728;8.748;2023-05-01T12:25:31;100139.72;;;22.54;33.43
34925;BME280;21130;51.728;8.748;2023-05-01T12:27:59;100142.53;;;21.93;33.88
34925;BME280;21130;51.728;8.748;2023-05-01T12:30:26;100147.03;;;22.03;33.42
34925;BME280;21130;51.728;8.748;2023-05-01T12:32:54;100132.78;;;22.26;33.02
34925;BME280;21130;51.728;8.748;2023-05-01T12:35:28;100137.59;;;22.34;34.60
34925;BME280;21130;51.728;8.748;2023-05-01T12:37:54;100137.84;;;22.93;32.98
34925;BME280;21130;51.728;8.748;2023-05-01T12:40:21;100138.19;;;22.74;32.66
34925;BME280;21130;51.728;8.748;2023-05-01T12:42:53;100134.50;;;23.08;31.50
34925;BME280;21130;51.728;8.748;2023-05-01T12:45:20;100131.16;;;23.15;32.35
34925;BME280;21130;51.728;8.748;2023-05-01T12:47:46;100130.72;;;23.34;33.72
34925;BME280;21130;51.728;8.748;2023-05-01T12:50:13;100129.38;;;23.40;31.07
34925;BME280;21130;51.728;8.748;2023-05-01T12:52:41;100128.78;;;23.17;32.60
34925;BME280;21130;51.728;8.748;2023-05-01T12:55:07;100127.59;;;23.57;32.70
34925;BME280;21130;51.728;8.748;2023-05-01T12:57:34;100132.56;;;23.98;30.49
34925;BME280;21130;51.728;8.748;2023-05-01T13:00:03;100117.84;;;25.26;30.53